Time;durP1;ratioP1;P1;durP2;ratioP2;P2;SDS_P1;SDS_P2;PMS_P1;PMS_P2;Temp;Humidity;BMP_temperature;BMP_pressure;BME280_temperature;BME280_humidity;BME280_pressure;Samples;Min_cycle;Max_cycle;Signal;HPM_P1;HPM_P2
2024/04/15 00:01:06;;;;;;;0.30;0.30;;;13.20;1.00;;;;;;5392717;26;20110;-84
2024/04/15 00:03:32;;;;;;;5.88;0.60;;;13.20;1.00;;;;;;5390730;26;20041;-81
2024/04/15 00:05:59;;;;;;;1.95;1.60;;;13.20;1.00;;;;;;5399392;26;20032;-81
2024/04/15 00:08:25;;;;;;;0.55;0.50;;;13.10;1.00;;;;;;5392003;26;20456;-83
2024/04/15 00:10:51;;;;;;;0.90;0.70;;;13.10;1.00;;;;;;5388499;26;20048;-82
2024/04/15 00:13:18;;;;;;;0.55;0.55;;;13.10;1.00;;;;;;5395930;26;20028;-84
2024/04/15 00:15:54;;;;;;;1.88;1.30;;;13.10;1.00;;;;;;5399707;26;20036;-84
2024/04/15 00:18:20;;;;;;;0.77;0.77;;;13.00;1.00;;;;;;5396124;26;20263;-83
2024/04/15 00:20:46;;;;;;;1.08;0.75;;;13.00;1.00;;;;;;5396305;26;20462;-83
2024/04/15 00:23:12;;;;;;;16.77;0.63;;;13.00;1.00;;;;;;5386441;26;20398;-84
2024/04/15 00:25:39;;;;;;;0.17;0.17;;;13.00;1.00;;;;;;5394682;26;20036;-83
2024/04/15 00:28:05;;;;;;;0.40;0.40;;;13.00;1.00;;;;;;5395825;26;20036;-83
2024/04/15 00:30:32;;;;;;;0.55;0.55;;;13.00;1.00;;;;;;5397257;26;20047;-83
2024/04/15 00:32:58;;;;;;;1.85;0.85;;;13.00;1.00;;;;;;5399598;26;20039;-82
2024/04/15 00:35:25;;;;;;;0.47;0.40;;;13.00;1.00;;;;;;5392693;26;20041;-83
2024/04/15 00:37:51;;;;;;;0.75;0.75;;;13.00;1.00;;;;;;5404771;26;20059;-83
2024/04/15 00:40:17;;;;;;;0.68;0.68;;;13.00;1.00;;;;;;5401682;26;20036;-82
2024/04/15 00:42:43;;;;;;;0.65;0.65;;;13.00;1.00;;;;;;5402492;26;20032;-82
2024/04/15 00:45:31;;;;;;;0.22;0.22;;;12.90;1.00;;;;;;5397561;26;20347;-82
2024/04/15 00:47:58;;;;;;;1.75;1.65;;;12.90;1.00;;;;;;5393473;26;20032;-83
2024/04/15 00:50:26;;;;;;;0.68;0.63;;;13.00;1.00;;;;;;5400245;26;20031;-82
2024/04/15 00:52:54;;;;;;;0.40;0.40;;;13.00;1.00;;;;;;5398666;26;20028;-82
2024/04/15 00:55:22;;;;;;;2.65;0.63;;;12.90;1.00;;;;;;5403252;26;20373;-82
2024/04/15 00:57:53;;;;;;;1.38;0.95;;;12.90;1.00;;;;;;5413244;26;20344;-82
2024/04/15 01:00:20;;;;;;;11.20;1.48;;;12.90;1.00;;;;;;5388222;26;20036;-83
2024/04/15 01:02:46;;;;;;;2.83;1.73;;;12.90;1.00;;;;;;5403034;26;20036;-82
2024/04/15 01:05:13;;;;;;;0.45;0.38;;;12.80;1.00;;;;;;5402268;26;20488;-85
2024/04/15 01:07:39;;;;;;;0.25;0.25;;;12.80;1.00;;;;;;5403166;26;20373;-82
2024/04/15 01:10:06;;;;;;;0.20;0.20;;;12.70;1.00;;;;;;5389847;26;20040;-85
2024/04/15 01:12:32;;;;;;;9.43;1.40;;;12.70;1.00;;;;;;5394164;26;20035;-82
2024/04/15 01:14:58;;;;;;;0.45;0.45;;;12.70;6.40;;;;;;5398813;26;20040;-84
2024/04/15 01:17:24;;;;;;;3.30;1.05;;;12.70;20.40;;;;;;5400470;26;20374;-82
2024/04/15 01:19:51;;;;;;;0.80;0.80;;;12.60;10.90;;;;;;5399550;26;20031;-82
2024/04/15 01:22:23;;;;;;;0.40;0.40;;;12.60;18.30;;;;;;5400178;26;20044;-84
2024/04/15 01:24:50;;;;;;;0.20;0.20;;;12.70;20.80;;;;;;5389530;26;20041;-82
2024/04/15 01:27:17;;;;;;;0.63;0.63;;;12.60;19.00;;;;;;5397909;26;20045;-81
2024/04/15 01:29:43;;;;;;;0.73;0.73;;;12.60;52.80;;;;;;5400919;26;20111;-82
2024/04/15 01:32:09;;;;;;;0.63;0.50;;;12.70;81.20;;;;;;5394824;26;20036;-80
2024/04/15 01:34:35;;;;;;;0.20;0.20;;;12.60;29.00;;;;;;5397496;26;20028;-83
2024/04/15 01:37:02;;;;;;;1.13;1.02;;;12.60;45.80;;;;;;5419687;26;20032;-81
2024/04/15 01:39:28;;;;;;;0.50;0.50;;;12.60;46.90;;;;;;5395389;26;20035;-82
2024/04/15 01:41:54;;;;;;;0.65;0.65;;;12.60;93.00;;;;;;5400188;26;20067;-82
2024/04/15 01:44:20;;;;;;;0.20;0.20;;;12.70;98.90;;;;;;5401049;26;20504;-81
2024/04/15 01:46:46;;;;;;;0.10;0.10;;;12.70;95.40;;;;;;5392713;26;20032;-85
2024/04/15 01:49:13;;;;;;;0.85;0.85;;;12.70;99.90;;;;;;5393283;26;20036;-82
2024/04/15 01:51:39;;;;;;;0.60;0.45;;;12.70;99.60;;;;;;5392988;26;20063;-81
2024/04/15 01:54:05;;;;;;;0.68;0.68;;;12.70;46.20;;;;;;5398462;26;20040;-82
2024/04/15 01:56:31;;;;;;;1.73;1.20;;;12.70;50.20;;;;;;5400637;26;20052;-82
2024/04/15 01:58:57;;;;;;;0.20;0.20;;;12.70;97.40;;;;;;5403807;26;20028;-82
2024/04/15 02:01:23;;;;;;;0.50;0.50;;;12.70;99.90;;;;;;5394887;26;20043;-82
2024/04/15 02:03:50;;;;;;;0.45;0.45;;;12.70;99.90;;;;;;5398747;26;20027;-84
2024/04/15 02:06:17;;;;;;;0.30;0.30;;;12.60;99.90;;;;;;5396725;26;20039;-82
2024/04/15 02:08:43;;;;;;;0.60;0.60;;;12.50;99.90;;;;;;5402928;26;20031;-83
2024/04/15 02:11:09;;;;;;;0.55;0.55;;;12.50;99.90;;;;;;5393503;26;20036;-83
2024/04/15 02:13:36;;;;;;;0.68;0.65;;;12.40;99.90;;;;;;5392589;26;20036;-83
2024/04/15 02:16:02;;;;;;;1.73;1.00;;;12.40;99.90;;;;;;5393818;26;20495;-82
2024/04/15 02:18:28;;;;;;;0.38;0.38;;;12.40;99.90;;;;;;5401964;26;20033;-82
2024/04/15 02:20:54;;;;;;;0.40;0.40;;;12.40;99.90;;;;;;5397644;26;20379;-82
2024/04/15 02:23:20;;;;;;;0.30;0.30;;;12.40;99.90;;;;;;5400200;26;20036;-82
2024/04/15 02:25:46;;;;;;;0.43;0.43;;;12.40;99.90;;;;;;5395700;26;20044;-82
2024/04/15 02:28:13;;;;;;;2.22;1.48;;;12.40;99.90;;;;;;5388448;26;20024;-82
2024/04/15 02:30:39;;;;;;;0.70;0.70;;;12.50;99.90;;;;;;5399875;26;20441;-83
2024/04/15 02:33:05;;;;;;;2.30;1.38;;;12.50;99.90;;;;;;5397530;26;20031;-79
2024/04/15 02:35:31;;;;;;;0.25;0.25;;;12.40;99.90;;;;;;5401370;26;20036;-82
2024/04/15 02:37:57;;;;;;;0.60;0.60;;;12.30;99.90;;;;;;5396450;26;20363;-83
2024/04/15 02:40:23;;;;;;;4.47;0.85;;;12.20;99.90;;;;;;5388331;26;20449;-82
2024/04/15 02:42:49;;;;;;;0.73;0.73;;;12.20;99.90;;;;;;5395615;26;20108;-82
2024/04/15 02:45:15;;;;;;;0.20;0.20;;;12.20;99.90;;;;;;5401943;26;20036;-81
2024/04/15 02:47:42;;;;;;;0.30;0.30;;;12.20;1.00;;;;;;5399845;26;20028;-82
2024/04/15 02:50:08;;;;;;;0.35;0.35;;;12.30;99.90;;;;;;5398547;26;20031;-82
2024/04/15 02:52:34;;;;;;;0.22;0.20;;;12.30;99.90;;;;;;5389148;26;20460;-82
2024/04/15 02:55:00;;;;;;;1.60;1.38;;;12.20;99.90;;;;;;5399466;26;20536;-82
2024/04/15 02:57:26;;;;;;;0.30;0.30;;;12.20;99.90;;;;;;5400653;26;20039;-83
2024/04/15 02:59:52;;;;;;;0.30;0.30;;;12.20;99.90;;;;;;5401563;26;20031;-83
2024/04/15 03:02:19;;;;;;;1.23;0.98;;;12.20;99.90;;;;;;5389351;26;20105;-82
2024/04/15 03:04:45;;;;;;;0.90;0.55;;;12.20;1.00;;;;;;5397966;26;20381;-82
2024/04/15 03:07:11;;;;;;;1.23;1.15;;;12.20;1.00;;;;;;5392072;26;20032;-82
2024/04/15 03:09:37;;;;;;;0.47;0.43;;;12.20;1.00;;;;;;5396176;26;20028;-82
2024/04/15 03:12:04;;;;;;;0.43;0.43;;;12.10;1.00;;;;;;5392604;26;20035;-83
2024/04/15 03:14:31;;;;;;;0.80;0.80;;;12.00;1.00;;;;;;5394668;26;20362;-83
2024/04/15 03:16:57;;;;;;;0.43;0.43;;;12.00;1.00;;;;;;5405923;26;20057;-82
2024/04/15 03:19:24;;;;;;;0.40;0.40;;;12.00;99.90;;;;;;5415739;26;20086;-81
2024/04/15 03:21:50;;;;;;;0.32;0.32;;;12.00;99.90;;;;;;5420108;26;20008;-81
2024/04/15 03:24:16;;;;;;;0.63;0.50;;;12.00;99.90;;;;;;5412653;26;20008;-82
2024/04/15 03:26:42;;;;;;;1.70;1.05;;;12.00;99.90;;;;;;5393413;26;20043;-82
2024/04/15 03:29:09;;;;;;;0.20;0.20;;;12.00;99.90;;;;;;5388759;26;20039;-82
2024/04/15 03:31:35;;;;;;;0.73;0.73;;;12.10;99.90;;;;;;5396346;26;20040;-82
2024/04/15 03:34:01;;;;;;;0.82;0.82;;;12.10;99.90;;;;;;5401028;26;20036;-82
2024/04/15 03:36:27;;;;;;;1.05;0.73;;;12.10;99.90;;;;;;5401143;26;20040;-82
2024/04/15 03:38:53;;;;;;;0.45;0.45;;;12.20;99.90;;;;;;5394115;26;20101;-82
2024/04/15 03:41:20;;;;;;;0.75;0.55;;;12.20;99.90;;;;;;5387078;26;20036;-82
2024/04/15 03:43:46;;;;;;;0.68;0.60;;;12.20;99.90;;;;;;5405658;26;20152;-83
2024/04/15 03:46:12;;;;;;;0.77;0.68;;;12.20;99.90;;;;;;5398336;26;20343;-81
2024/04/15 03:48:38;;;;;;;9.68;0.93;;;12.20;99.90;;;;;;5399409;26;20027;-82
2024/04/15 03:51:04;;;;;;;0.80;0.65;;;12.20;99.90;;;;;;5392391;26;20465;-82
2024/04/15 03:53:31;;;;;;;1.67;0.88;;;12.20;99.90;;;;;;5394359;26;20060;-81
2024/04/15 03:55:57;;;;;;;1.20;0.52;;;12.20;99.90;;;;;;5389204;26;20024;-82
2024/04/15 03:58:23;;;;;;;0.75;0.43;;;12.20;99.90;;;;;;5399014;26;20043;-82
2024/04/15 04:00:50;;;;;;;0.77;0.30;;;12.20;99.90;;;;;;5398647;26;20036;-81
2024/04/15 04:03:16;;;;;;;0.63;0.63;;;12.10;99.90;;;;;;5389830;26;20052;-76
2024/04/15 04:05:42;;;;;;;0.40;0.40;;;12.10;99.90;;;;;;5392382;26;20032;-78
2024/04/15 04:08:08;;;;;;;2.20;1.20;;;12.10;99.90;;;;;;5397384;26;20031;-81
2024/04/15 04:10:35;;;;;;;0.47;0.47;;;12.10;99.90;;;;;;5398911;26;20043;-78
2024/04/15 04:13:01;;;;;;;0.93;0.85;;;12.20;99.90;;;;;;5398955;26;20340;-79
2024/04/15 04:15:27;;;;;;;0.60;0.60;;;12.20;99.90;;;;;;5399719;26;20055;-79
2024/04/15 04:17:53;;;;;;;0.40;0.40;;;12.20;99.90;;;;;;5387664;26;20500;-79
2024/04/15 04:20:19;;;;;;;0.65;0.57;;;12.20;99.90;;;;;;5397801;26;20051;-80
2024/04/15 04:22:46;;;;;;;0.68;0.65;;;12.30;99.90;;;;;;5399842;26;20037;-80
2024/04/15 04:25:12;;;;;;;0.57;0.55;;;12.30;99.90;;;;;;5402118;26;20031;-83
2024/04/15 04:27:38;;;;;;;0.20;0.20;;;12.30;99.90;;;;;;5391668;26;20031;-83
2024/04/15 04:30:05;;;;;;;0.40;0.40;;;12.30;99.90;;;;;;5392913;26;20040;-84
2024/04/15 04:32:31;;;;;;;0.57;0.57;;;12.30;99.90;;;;;;5398436;26;20000;-83
2024/04/15 04:34:57;;;;;;;0.52;0.50;;;12.40;99.90;;;;;;5412959;26;20039;-84
2024/04/15 04:37:24;;;;;;;0.40;0.40;;;12.30;99.90;;;;;;5402374;26;20488;-82
2024/04/15 04:39:50;;;;;;;0.55;0.55;;;12.40;99.90;;;;;;5408909;26;20036;-83
2024/04/15 04:42:17;;;;;;;0.43;0.43;;;12.40;99.90;;;;;;5395087;26;20032;-83
2024/04/15 04:44:43;;;;;;;1.00;0.90;;;12.40;99.90;;;;;;5405456;26;20028;-83
2024/04/15 04:47:09;;;;;;;1.95;0.55;;;12.40;99.90;;;;;;5398567;26;20036;-82
2024/04/15 04:49:35;;;;;;;0.30;0.30;;;12.50;99.90;;;;;;5404727;26;20031;-82
2024/04/15 04:52:01;;;;;;;2.58;1.38;;;12.50;99.90;;;;;;5404102;26;20450;-83
2024/04/15 04:54:27;;;;;;;1.35;0.95;;;12.50;99.90;;;;;;5396092;26;20032;-83
2024/04/15 04:56:54;;;;;;;0.77;0.77;;;12.50;99.90;;;;;;5394062;26;20032;-83
2024/04/15 04:59:22;;;;;;;0.75;0.70;;;12.50;99.90;;;;;;5402553;26;20034;-84
2024/04/15 05:01:48;;;;;;;0.20;0.20;;;12.50;99.90;;;;;;5403854;26;20035;-84
2024/04/15 05:04:15;;;;;;;6.00;2.20;;;12.50;99.90;;;;;;5402914;26;20074;-81
2024/04/15 05:06:41;;;;;;;2.15;1.48;;;12.60;99.90;;;;;;5400841;26;20043;-82
2024/04/15 05:09:07;;;;;;;0.57;0.57;;;12.50;99.90;;;;;;5403484;26;20024;-82
2024/04/15 05:11:33;;;;;;;0.70;0.70;;;12.60;99.90;;;;;;5389725;26;20134;-82
2024/04/15 05:13:59;;;;;;;2.47;1.63;;;12.60;99.90;;;;;;5404089;26;20050;-82
2024/04/15 05:16:25;;;;;;;0.68;0.63;;;12.60;99.90;;;;;;5401238;26;20379;-82
2024/04/15 05:18:52;;;;;;;1.55;0.88;;;12.60;99.90;;;;;;5394955;26;20032;-82
2024/04/15 05:21:18;;;;;;;0.98;0.95;;;12.60;99.90;;;;;;5385030;26;20059;-82
2024/04/15 05:23:44;;;;;;;0.77;0.75;;;12.60;99.90;;;;;;5395166;26;20035;-84
2024/04/15 05:26:11;;;;;;;0.40;0.40;;;12.60;99.90;;;;;;5403192;26;20036;-84
2024/04/15 05:28:37;;;;;;;2.30;1.40;;;12.60;99.90;;;;;;5402140;26;20024;-84
2024/04/15 05:31:03;;;;;;;0.68;0.68;;;12.60;99.90;;;;;;5406502;26;20497;-84
2024/04/15 05:33:30;;;;;;;0.98;0.55;;;12.60;99.90;;;;;;5389926;26;20051;-84
2024/04/15 05:35:56;;;;;;;2.33;1.27;;;12.50;99.90;;;;;;5408325;26;20027;-84
2024/04/15 05:38:22;;;;;;;1.17;1.08;;;12.50;99.90;;;;;;5403600;26;20036;-84
2024/04/15 05:40:48;;;;;;;0.95;0.95;;;12.50;99.90;;;;;;5405378;26;20032;-83
2024/04/15 05:43:15;;;;;;;0.50;0.45;;;12.40;99.90;;;;;;5400411;26;20032;-82
2024/04/15 05:45:43;;;;;;;1.95;1.00;;;12.40;99.90;;;;;;5393017;26;20028;-84
2024/04/15 05:48:09;;;;;;;2.40;2.08;;;12.40;99.90;;;;;;5408953;26;20041;-84
2024/04/15 05:50:36;;;;;;;0.30;0.30;;;12.40;99.90;;;;;;5398954;26;20055;-84
2024/04/15 05:53:02;;;;;;;3.70;0.93;;;12.40;99.90;;;;;;5404718;26;20039;-82
2024/04/15 05:55:28;;;;;;;1.00;1.00;;;12.30;99.90;;;;;;5396869;26;20027;-82
2024/04/15 05:57:54;;;;;;;1.77;1.27;;;12.30;99.90;;;;;;5387276;26;20036;-82
2024/04/15 06:00:20;;;;;;;1.33;0.90;;;12.20;99.90;;;;;;5393707;26;20035;-79
2024/04/15 06:02:47;;;;;;;0.20;0.20;;;12.10;99.90;;;;;;5403134;26;20035;-81
2024/04/15 06:05:14;;;;;;;0.20;0.20;;;12.10;99.90;;;;;;5409357;26;20369;-81
2024/04/15 06:07:40;;;;;;;0.60;0.60;;;12.00;1.00;;;;;;5402502;26;20035;-81
2024/04/15 06:10:06;;;;;;;3.40;1.67;;;12.00;1.00;;;;;;5402694;26;20036;-80
2024/04/15 06:12:33;;;;;;;1.38;1.05;;;11.90;1.00;;;;;;5387024;26;20055;-83
2024/04/15 06:14:59;;;;;;;0.30;0.30;;;11.90;1.00;;;;;;5374924;26;20015;-83
2024/04/15 06:17:25;;;;;;;5.75;2.10;;;11.80;1.00;;;;;;5397463;26;20015;-80
2024/04/15 06:19:51;;;;;;;1.10;0.60;;;11.80;20.40;;;;;;5407172;26;20039;-80
2024/04/15 06:22:18;;;;;;;0.80;0.80;;;11.80;28.40;;;;;;5404633;26;20407;-80
2024/04/15 06:24:45;;;;;;;0.40;0.40;;;11.80;14.70;;;;;;5407095;26;20099;-80
2024/04/15 06:27:11;;;;;;;1.00;0.93;;;11.80;60.70;;;;;;5404556;26;20039;-81
2024/04/15 06:29:38;;;;;;;0.38;0.38;;;11.80;96.10;;;;;;5375614;26;20407;-83
2024/04/15 06:32:05;;;;;;;1.30;1.20;;;11.80;99.90;;;;;;5398712;26;20035;-80
2024/04/15 06:34:32;;;;;;;0.40;0.40;;;11.80;79.20;;;;;;5394095;26;20473;-80
2024/04/15 06:36:58;;;;;;;0.98;0.95;;;11.80;99.90;;;;;;5402318;26;20040;-81
2024/04/15 06:39:25;;;;;;;0.68;0.63;;;11.80;99.90;;;;;;5409554;26;20472;-81
2024/04/15 06:41:52;;;;;;;0.70;0.70;;;11.80;99.90;;;;;;5405111;26;20031;-82
2024/04/15 06:44:18;;;;;;;4.72;2.03;;;11.80;99.90;;;;;;5405391;26;20035;-84
2024/04/15 06:46:44;;;;;;;0.75;0.35;;;11.90;99.90;;;;;;5397720;26;20456;-82
2024/04/15 06:49:10;;;;;;;0.75;0.75;;;11.90;99.90;;;;;;5396127;26;20485;-82
2024/04/15 06:51:39;;;;;;;0.95;0.95;;;12.00;99.90;;;;;;5405283;26;20044;-81
2024/04/15 06:54:07;;;;;;;0.65;0.65;;;12.00;99.90;;;;;;5403006;26;20453;-82
2024/04/15 06:56:33;;;;;;;0.50;0.50;;;12.10;34.80;;;;;;5399915;26;20032;-82
2024/04/15 06:58:59;;;;;;;1.17;1.08;;;12.10;72.90;;;;;;5393791;26;20035;-82
2024/04/15 07:01:26;;;;;;;1.90;0.65;;;12.20;97.90;;;;;;5396614;26;20043;-82
2024/04/15 07:03:52;;;;;;;1.15;1.10;;;12.20;90.40;;;;;;5403490;26;20102;-82
2024/04/15 07:06:18;;;;;;;0.57;0.57;;;12.20;58.10;;;;;;5391192;26;20035;-82
2024/04/15 07:08:45;;;;;;;0.40;0.40;;;12.30;35.50;;;;;;5397217;26;20042;-82
2024/04/15 07:11:11;;;;;;;1.30;0.45;;;12.30;33.50;;;;;;5406755;26;20036;-82
2024/04/15 07:13:37;;;;;;;0.77;0.77;;;12.40;44.20;;;;;;5389498;26;20039;-82
2024/04/15 07:16:04;;;;;;;1.33;0.80;;;12.40;47.60;;;;;;5405887;26;20039;-84
2024/04/15 07:18:31;;;;;;;0.35;0.35;;;12.60;42.40;;;;;;5400159;26;20004;-83
2024/04/15 07:20:58;;;;;;;2.47;0.75;;;12.60;6.00;;;;;;5390823;26;20050;-83
2024/04/15 07:23:25;;;;;;;0.50;0.40;;;12.70;17.80;;;;;;5396859;26;20031;-83
2024/04/15 07:25:59;;;;;;;0.20;0.20;;;13.00;1.00;;;;;;5389889;26;20029;-83
2024/04/15 07:28:25;;;;;;;3.67;1.25;;;13.30;99.90;;;;;;5391396;26;20033;-83
2024/04/15 07:30:56;;;;;;;1.23;1.13;;;13.60;99.90;;;;;;5396209;26;20380;-83
2024/04/15 07:33:23;;;;;;;3.13;1.65;;;13.90;99.90;;;;;;5399341;26;20031;-83
2024/04/15 07:35:57;;;;;;;0.30;0.30;;;14.10;99.90;;;;;;5395988;26;20032;-83
2024/04/15 07:38:23;;;;;;;5.70;1.25;;;14.40;99.90;;;;;;5397199;26;20034;-83
2024/04/15 07:40:52;;;;;;;1.55;0.95;;;14.30;10.00;;;;;;5398331;26;20361;-83
2024/04/15 07:43:18;;;;;;;1.10;0.85;;;14.20;1.00;;;;;;5411828;26;20031;-83
2024/04/15 07:45:45;;;;;;;0.20;0.20;;;14.10;1.00;;;;;;5390519;26;20031;-83
2024/04/15 07:48:12;;;;;;;0.30;0.30;;;14.00;37.60;;;;;;5404179;26;20036;-82
2024/04/15 07:50:38;;;;;;;1.75;0.55;;;14.10;89.40;;;;;;5407088;26;20040;-82
2024/04/15 07:53:04;;;;;;;0.55;0.40;;;14.20;39.40;;;;;;5420411;26;20044;-82
2024/04/15 07:55:31;;;;;;;0.40;0.32;;;14.40;1.00;;;;;;5400925;26;20060;-83
2024/04/15 07:57:57;;;;;;;0.40;0.40;;;14.50;1.00;;;;;;5409697;26;20377;-83
2024/04/15 08:00:23;;;;;;;0.20;0.20;;;14.30;1.00;;;;;;5383064;26;20051;-83
2024/04/15 08:02:49;;;;;;;2.88;1.23;;;14.30;1.60;;;;;;5409955;26;20023;-84
2024/04/15 08:05:17;;;;;;;0.10;0.10;;;14.80;1.00;;;;;;5404050;26;20492;-84
2024/04/15 08:07:43;;;;;;;0.88;0.88;;;15.20;1.00;;;;;;5398774;26;20473;-84
2024/04/15 08:10:10;;;;;;;0.35;0.35;;;15.10;1.00;;;;;;5392053;26;20032;-83
2024/04/15 08:12:37;;;;;;;1.08;0.93;;;15.00;1.00;;;;;;5397812;26;20044;-84
2024/04/15 08:15:03;;;;;;;2.83;1.65;;;15.10;1.00;;;;;;5403972;26;20031;-86
2024/04/15 08:17:30;;;;;;;0.20;0.20;;;15.80;1.00;;;;;;5377673;26;20032;-86
2024/04/15 08:19:56;;;;;;;0.55;0.55;;;16.30;1.00;;;;;;5398520;26;20031;-84
2024/04/15 08:22:22;;;;;;;0.20;0.20;;;16.50;99.90;;;;;;5406548;26;20020;-80
2024/04/15 08:24:49;;;;;;;0.95;0.75;;;16.30;99.90;;;;;;5394534;26;20406;-81
2024/04/15 08:27:20;;;;;;;0.40;0.30;;;15.90;99.90;;;;;;5394927;26;20036;-83
2024/04/15 08:29:47;;;;;;;7.50;0.50;;;16.40;99.90;;;;;;5406293;26;20028;-82
2024/04/15 08:32:13;;;;;;;0.30;0.30;;;17.10;99.90;;;;;;5406502;26;20031;-82
2024/04/15 08:34:40;;;;;;;1.10;0.98;;;17.10;99.90;;;;;;5404956;26;20051;-82
2024/04/15 08:37:07;;;;;;;0.40;0.40;;;16.70;99.90;;;;;;5402037;26;20031;-83
2024/04/15 08:39:35;;;;;;;0.20;0.20;;;16.20;99.90;;;;;;5394809;26;20035;-81
2024/04/15 08:42:43;;;;;;;4.50;0.85;;;16.10;99.90;;;;;;5412320;26;20039;-81
2024/04/15 08:45:16;;;;;;;0.80;0.55;;;15.80;99.90;;;;;;5301964;27;20041;-82
2024/04/15 08:47:48;;;;;;;0.30;0.30;;;15.50;99.90;;;;;;5397050;26;20031;-81
2024/04/15 08:50:15;;;;;;;0.43;0.43;;;15.50;99.90;;;;;;5394750;26;20048;-80
2024/04/15 08:52:44;;;;;;;1.02;0.30;;;15.60;99.90;;;;;;5416692;26;20015;-81
2024/04/15 08:55:10;;;;;;;7.43;1.33;;;15.60;99.90;;;;;;5414134;26;20039;-81
2024/04/15 08:57:38;;;;;;;0.50;0.50;;;15.60;99.90;;;;;;5393081;26;20049;-83
2024/04/15 09:00:09;;;;;;;0.13;0.13;;;16.00;99.90;;;;;;5423854;26;20003;-82
2024/04/15 09:02:36;;;;;;;0.10;0.10;;;16.00;99.90;;;;;;5418510;26;20004;-83
2024/04/15 09:05:03;;;;;;;0.40;0.40;;;16.10;99.90;;;;;;5419350;26;20022;-80
2024/04/15 09:07:29;;;;;;;0.73;0.73;;;15.90;99.90;;;;;;5401370;26;20020;-81
2024/04/15 09:09:55;;;;;;;0.10;0.10;;;15.70;99.90;;;;;;5404489;26;20049;-81
2024/04/15 09:12:23;;;;;;;0.45;0.45;;;15.60;99.90;;;;;;5401986;26;20045;-79
2024/04/15 09:14:49;;;;;;;10.23;1.98;;;15.80;99.90;;;;;;5400996;26;20040;-81
2024/04/15 09:17:16;;;;;;;0.38;0.38;;;15.80;99.90;;;;;;5410793;26;20035;-79
2024/04/15 09:19:47;;;;;;;0.20;0.20;;;15.90;99.90;;;;;;5409528;26;20047;-81
2024/04/15 09:22:13;;;;;;;0.40;0.40;;;15.90;99.90;;;;;;5413482;26;20027;-81
2024/04/15 09:24:39;;;;;;;2.28;1.17;;;15.80;99.90;;;;;;5415131;26;20063;-81
2024/04/15 09:27:06;;;;;;;0.30;0.30;;;15.60;99.90;;;;;;5410572;26;20036;-81
2024/04/15 09:29:33;;;;;;;0.20;0.20;;;15.60;99.90;;;;;;5408453;26;20477;-82
2024/04/15 09:31:59;;;;;;;1.17;0.80;;;15.70;99.90;;;;;;5394478;26;20032;-84
2024/04/15 09:34:25;;;;;;;9.90;0.85;;;15.70;99.90;;;;;;5396653;26;20028;-83
2024/04/15 09:36:59;;;;;;;1.63;0.63;;;16.00;99.90;;;;;;5400574;26;20586;-83
2024/04/15 09:39:27;;;;;;;0.45;0.45;;;15.80;99.90;;;;;;5395590;26;20039;-83
2024/04/15 09:41:56;;;;;;;0.35;0.35;;;16.00;99.90;;;;;;5399747;26;20036;-82
2024/04/15 09:44:24;;;;;;;0.73;0.30;;;16.20;99.90;;;;;;5391064;26;20775;-84
2024/04/15 09:46:52;;;;;;;0.15;0.15;;;16.00;99.90;;;;;;5401901;26;20040;-83
2024/04/15 09:49:18;;;;;;;0.52;0.52;;;15.90;99.90;;;;;;5406117;26;20070;-84
2024/04/15 09:51:48;;;;;;;0.30;0.30;;;16.00;99.90;;;;;;5407340;26;20035;-84
2024/04/15 09:54:22;;;;;;;0.10;0.10;;;16.10;99.90;;;;;;5403730;26;20445;-84
2024/04/15 09:56:55;;;;;;;0.65;0.63;;;16.40;99.90;;;;;;5401802;26;20032;-83
2024/04/15 09:59:23;;;;;;;0.80;0.60;;;16.80;99.90;;;;;;5412191;26;20036;-84
2024/04/15 10:01:53;;;;;;;0.55;0.55;;;16.80;99.90;;;;;;5394233;26;20088;-84
2024/04/15 10:04:21;;;;;;;1.13;0.68;;;16.50;99.90;;;;;;5394096;26;20040;-82
2024/04/15 10:06:53;;;;;;;0.10;0.10;;;16.10;99.90;;;;;;5399522;26;20044;-84
2024/04/15 10:09:19;;;;;;;0.20;0.20;;;16.20;99.90;;;;;;5394415;26;20351;-84
2024/04/15 10:11:47;;;;;;;2.25;0.80;;;16.50;99.90;;;;;;5391748;26;20024;-81
2024/04/15 10:14:19;;;;;;;3.50;0.30;;;16.90;99.90;;;;;;5401862;26;20032;-82
2024/04/15 10:16:49;;;;;;;3.25;0.45;;;17.10;99.90;;;;;;5375609;26;20076;-85
2024/04/15 10:19:28;;;;;;;0.30;0.30;;;17.30;99.90;;;;;;5398458;26;20028;-83
2024/04/15 10:21:55;;;;;;;0.10;0.10;;;17.70;99.90;;;;;;5399721;26;20031;-84
2024/04/15 10:24:23;;;;;;;0.20;0.20;;;17.40;99.90;;;;;;5404802;26;20032;-84
2024/04/15 10:26:49;;;;;;;0.10;0.10;;;17.60;99.90;;;;;;5393999;26;20036;-83
2024/04/15 10:29:21;;;;;;;0.65;0.43;;;17.60;99.90;;;;;;5401424;26;20032;-81
2024/04/15 10:31:56;;;;;;;3.03;1.15;;;17.50;99.90;;;;;;5396837;26;20036;-82
2024/04/15 10:34:24;;;;;;;0.10;0.10;;;17.60;99.90;;;;;;5377981;26;20036;-85
2024/04/15 10:36:52;;;;;;;0.40;0.40;;;18.00;99.90;;;;;;5402699;26;20500;-85
2024/04/15 10:39:20;;;;;;;0.30;0.30;;;17.90;99.90;;;;;;5410785;26;20044;-84
2024/04/15 10:41:48;;;;;;;0.10;0.10;;;18.10;99.90;;;;;;5414187;26;20035;-84
2024/04/15 10:44:15;;;;;;;0.73;0.40;;;18.00;99.90;;;;;;5358979;26;20043;-82
2024/04/15 10:46:46;;;;;;;0.35;0.20;;;18.00;99.90;;;;;;5391587;26;20033;-85
2024/04/15 10:49:14;;;;;;;0.20;0.20;;;18.30;99.90;;;;;;5395476;26;20027;-83
2024/04/15 10:51:40;;;;;;;0.10;0.10;;;18.10;99.90;;;;;;5390883;26;20040;-83
2024/04/15 10:54:07;;;;;;;0.10;0.10;;;18.10;99.90;;;;;;5394183;26;20048;-83
2024/04/15 10:56:33;;;;;;;0.30;0.30;;;17.60;99.90;;;;;;5389263;26;20023;-81
2024/04/15 10:59:00;;;;;;;0.13;0.13;;;17.80;99.90;;;;;;5407366;26;20039;-82
2024/04/15 11:01:28;;;;;;;0.10;0.10;;;18.30;99.90;;;;;;5392310;26;20040;-82
2024/04/15 11:03:54;;;;;;;3.50;1.30;;;18.70;99.90;;;;;;5388305;26;20453;-82
2024/04/15 11:06:20;;;;;;;0.40;0.40;;;18.70;93.90;;;;;;5395661;26;20036;-82
2024/04/15 11:08:46;;;;;;;1.95;1.45;;;18.40;95.20;;;;;;5393158;26;20035;-80
2024/04/15 11:11:14;;;;;;;0.10;0.10;;;18.80;92.70;;;;;;5365693;26;20039;-81
2024/04/15 11:13:40;;;;;;;0.32;0.32;;;18.90;92.00;;;;;;5394618;26;20043;-81
2024/04/15 11:16:10;;;;;;;0.30;0.30;;;19.00;87.20;;;;;;5404501;26;20028;-83
2024/04/15 11:18:36;;;;;;;0.35;0.35;;;18.40;90.50;;;;;;5374684;26;20033;-81
2024/04/15 11:21:04;;;;;;;0.10;0.10;;;18.30;92.90;;;;;;5395460;26;20031;-83
2024/04/15 11:23:34;;;;;;;0.20;0.20;;;18.20;95.10;;;;;;5399753;26;20027;-82
2024/04/15 11:26:01;;;;;;;0.20;0.20;;;17.80;94.20;;;;;;5394994;26;20031;-82
2024/04/15 11:28:29;;;;;;;0.63;0.63;;;17.80;97.00;;;;;;5404863;26;20032;-83
2024/04/15 11:30:57;;;;;;;0.10;0.10;;;17.70;96.80;;;;;;5393257;26;20027;-84
2024/04/15 11:33:24;;;;;;;0.10;0.10;;;17.40;95.10;;;;;;5389715;26;20036;-83
2024/04/15 11:35:52;;;;;;;0.20;0.20;;;17.30;93.00;;;;;;5384717;26;20039;-79
2024/04/15 11:38:21;;;;;;;0.20;0.20;;;17.50;93.90;;;;;;5399787;26;20036;-83
2024/04/15 11:40:49;;;;;;;0.40;0.40;;;17.90;90.80;;;;;;5399153;26;20885;-85
2024/04/15 11:43:15;;;;;;;0.20;0.20;;;17.90;90.60;;;;;;5402750;26;20039;-82
2024/04/15 11:45:55;;;;;;;1.45;0.93;;;18.00;87.30;;;;;;5408991;26;20036;-80
2024/04/15 11:48:22;;;;;;;0.10;0.10;;;17.90;83.80;;;;;;5405502;26;20036;-83
2024/04/15 11:50:49;;;;;;;0.10;0.10;;;18.20;84.80;;;;;;5397665;26;20044;-82
2024/04/15 11:53:24;;;;;;;0.20;0.20;;;18.30;76.80;;;;;;5388963;26;20027;-84
2024/04/15 11:55:52;;;;;;;0.20;0.20;;;18.20;71.90;;;;;;5392345;26;20040;-82
2024/04/15 11:58:21;;;;;;;0.22;0.22;;;18.20;71.40;;;;;;5394979;26;20035;-83
2024/04/15 12:00:47;;;;;;;0.93;0.60;;;18.30;75.40;;;;;;5392255;26;20032;-82
2024/04/15 12:03:13;;;;;;;0.20;0.20;;;18.20;64.80;;;;;;5387240;26;20040;-83
2024/04/15 12:05:40;;;;;;;0.47;0.47;;;18.00;66.70;;;;;;5394038;26;20035;-83
2024/04/15 12:08:07;;;;;;;5.63;0.32;;;18.30;67.50;;;;;;5357005;26;20047;-83
2024/04/15 12:10:34;;;;;;;0.38;0.32;;;18.70;68.20;;;;;;5392744;26;20037;-83
2024/04/15 12:13:00;;;;;;;0.10;0.10;;;18.50;71.20;;;;;;5404145;26;20040;-81
2024/04/15 12:15:27;;;;;;;0.17;0.17;;;18.30;71.70;;;;;;5398589;26;20489;-84
2024/04/15 12:17:53;;;;;;;3.30;1.17;;;18.20;69.50;;;;;;5410655;26;20024;-81
2024/04/15 12:20:19;;;;;;;0.22;0.22;;;18.50;66.00;;;;;;5404063;26;20040;-83
2024/04/15 12:22:45;;;;;;;0.10;0.10;;;18.80;67.50;;;;;;5401480;26;20411;-82
2024/04/15 12:25:12;;;;;;;0.10;0.10;;;18.50;67.10;;;;;;5390640;26;20037;-89
2024/04/15 12:27:39;;;;;;;2.35;0.38;;;18.60;62.50;;;;;;5399631;26;20048;-87
2024/04/15 12:30:05;;;;;;;2.20;0.38;;;18.50;66.00;;;;;;5393267;26;20037;-87
2024/04/15 12:32:32;;;;;;;0.30;0.22;;;19.00;63.60;;;;;;5393672;26;20038;-82
2024/04/15 12:34:58;;;;;;;0.85;0.82;;;19.00;61.60;;;;;;5400220;26;20040;-84
2024/04/15 12:37:24;;;;;;;0.10;0.10;;;19.20;59.30;;;;;;5403337;26;20041;-85
2024/04/15 12:39:50;;;;;;;0.15;0.15;;;19.40;59.40;;;;;;5401714;26;20044;-86
2024/04/15 12:42:17;;;;;;;1.40;0.85;;;19.30;58.10;;;;;;5397966;26;20030;-84
2024/04/15 12:44:43;;;;;;;0.10;0.10;;;19.00;53.60;;;;;;5423176;26;20028;-82
2024/04/15 12:47:09;;;;;;;0.10;0.10;;;19.00;51.50;;;;;;5396078;26;20043;-87